Terminal Aerodrome Forecast
Issued by NWS Charleston, WV

Current Version | Previous Version | Graphics & Text | Print | Product List | Glossary On
Versions: 1 2 3 4 5 6 7 8 9 10 11 12 13 14 15 16 17 18 19 20 21 22
000
FTUS41 KRLX 290902 AAA
TAFPKB
TAF AMD
KPKB 290902Z 2909/3006 00000KT 1/4SM FG VV001
     FM291300 00000KT 2SM HZ FEW040
     FM291400 00000KT P6SM FEW050
     FM300300 VRB03KT P6SM BKN060
     FM300400 VRB03KT P6SM VCTS BKN060CB=

USA.gov is the U.S. government's official web portal to all federal, state and local government web resources and services.